Aviation Digital Data Service (ADDS)

Output produced by METARs form (0119 UTC 17 July 2019)
found at http://www.aviationweather.gov/metar/data/
 
Forecast for: UBBG (GYANDZHA , AZ)
Text: TAF UBBG 162300Z 1700/1724 28010KT 9999 FEW040 SCT100 TX34/1712ZZ TEM PO 1700/1706 31008KT
Forecast period: 0000 to 0600 UTC 17 July 2019
Forecast type: FROM: standard forecast or significant change
Winds: from the W (280 degrees) at 12 MPH (10 knots; 5.1 m/s)
Visibility: 6 or more miles 10+ km)
Ceiling: at least 12,000 feet AGL
Clouds: few clouds at 4000 feet AGL
scattered clouds at 10000 feet AGL
Weather: PO  (dust/sand whirls)
Text: BECMG 1706/1708 VRB04KT
Forecast period: 0600 to 0900 UTC 17 July 2019
Forecast type: BECOMING: Conditions expected to become as follows by 0800 UTC 17 July 2019
Winds: variable direction winds at 5 MPH (4 knots; 2.1 m/s)
Visibility: 6 or more miles 10+ km)
Ceiling: at least 12,000 feet AGL
Clouds: few clouds at 4000 feet AGL
scattered clouds at 10000 feet AGL
Weather: PO  (dust/sand whirls)
Text: BECMG 1709/1711 10014KT
Forecast period: 0900 UTC 17 July 2019 to 0000 UTC 18 July 2019
Forecast type: BECOMING: Conditions expected to become as follows by 1100 UTC 17 July 2019
Winds: from the E (100 degrees) at 16 MPH (14 knots; 7.2 m/s)
Visibility: 6 or more miles 10+ km)
Ceiling: at least 12,000 feet AGL
Clouds: few clouds at 4000 feet AGL
scattered clouds at 10000 feet AGL
Weather: PO  (dust/sand whirls)